Rms Voerde — V2AD8 — position and weather

sailwx.info

Track history (hours):
 
Tides and Currents Weather Stations Pressure Air Temp Water Temp Dewpoint Dewpoint Depression Visibility Wind Speed Wind Dir Waves Ship Positions

Rms Voerde

Last reported at 2017-May-25 07:01 UTC. Time now 2017-May-25 07:01 UTC.
Position N 52°20' E 003°48'.

Length 90 m.

Type: Ship. MMSI: 304010905.

Date/timePositionNaut miles runAvg speedWind from/ knotsBaromVisibWave heightAir tempDewpointWater temp
2017-May-25 07:01N 52°20' E 003°48'1311.6
2017-May-25 05:55N 52°33' E 003°52'510.4
2017-May-25 05:26N 52°38' E 003°53'410.4
2017-May-25 05:00N 52°42' E 003°55'510.3
2017-May-25 04:30N 52°47' E 003°57'5 9.9
2017-May-25 04:00N 52°52' E 003°58'5 9.5
2017-May-25 03:30N 52°57' E 004°00'5 9.2
2017-May-25 02:55N 53°01' E 004°06'4 9.3
2017-May-25 02:30N 53°03' E 004°11'5 9.3
2017-May-25 02:00N 53°06' E 004°16'4 8.5
2017-May-25 01:30N 53°09' E 004°21'4 9.0
2017-May-25 01:00N 53°13' E 004°26'5 9.7
2017-May-25 00:30N 53°18' E 004°29'510.1
2017-May-25 00:00N 53°22' E 004°31'610.3
2017-May-24 23:28N 53°28' E 004°34'510.0
2017-May-24 22:58N 53°32' E 004°37'510.1
2017-May-24 22:30N 53°37' E 004°39'6 9.8
2017-May-24 21:53N 53°43' E 004°43'29210.3
2017-May-23 17:31N 58°34' E 005°13'010.3
2017-May-23 17:30N 58°34' E 005°13'510.6
2017-May-23 17:00N 58°39' E 005°13'510.2
2017-May-23 16:30N 58°44' E 005°14'5 9.9
2017-May-23 16:00N 58°49' E 005°15'5 9.9
2017-May-23 15:30N 58°54' E 005°17'5 9.9
2017-May-23 15:00N 58°59' E 005°18'5 9.6
2017-May-23 14:30N 59°04' E 005°19'9 8.6
2017-May-23 13:30N 59°10' E 005°31'510.5
2017-May-23 13:00N 59°13' E 005°38'510.9
2017-May-23 12:30N 59°17' E 005°46'510.7
2017-May-23 12:00N 59°20' E 005°55'611.0
2017-May-23 11:30N 59°23' E 006°04'5 9.9
2017-May-23 11:00N 59°26' E 006°11'510.8
2017-May-23 10:30N 59°31' E 006°16'510.5
2017-May-23 10:00N 59°36' E 006°19'3 5.1
2017-May-23 09:28N 59°39' E 006°22'0 0.0
2017-May-23 08:58N 59°39' E 006°22'0 0.0
2017-May-23 08:28N 59°39' E 006°22'0 0.0
2017-May-23 07:58N 59°39' E 006°22'0 0.0
2017-May-23 07:28N 59°39' E 006°22'0 0.0
2017-May-23 06:58N 59°39' E 006°22'0 0.0
2017-May-23 06:28N 59°39' E 006°22'0 0.0
2017-May-23 05:58N 59°39' E 006°22'0 0.0
2017-May-23 05:28N 59°39' E 006°22'0 0.0
2017-May-23 04:58N 59°39' E 006°22'0 0.0
2017-May-23 04:28N 59°39' E 006°22'0 0.0
2017-May-23 03:58N 59°39' E 006°22'0 0.0
2017-May-23 03:28N 59°39' E 006°22'0 0.0
2017-May-23 02:58N 59°39' E 006°22'0 0.0
2017-May-23 02:28N 59°39' E 006°22'0 0.0
2017-May-23 01:58N 59°39' E 006°22'0 0.0
2017-May-23 01:28N 59°39' E 006°22'0 0.0
2017-May-23 00:58N 59°39' E 006°22'0 0.0
2017-May-23 00:28N 59°39' E 006°22'0 0.0
2017-May-22 23:58N 59°39' E 006°22'0 0.0
2017-May-22 23:28N 59°39' E 006°22'0 0.0
2017-May-22 22:58N 59°39' E 006°22'0 0.0
2017-May-22 22:28N 59°39' E 006°22'0 0.0
2017-May-22 21:58N 59°39' E 006°22'0 0.0
2017-May-22 21:28N 59°39' E 006°22'0 0.0
2017-May-22 20:58N 59°39' E 006°22'0 0.0
2017-May-22 20:28N 59°39' E 006°22'0 0.0
2017-May-22 19:58N 59°39' E 006°22'0 0.0
2017-May-22 19:28N 59°39' E 006°22'0 0.0
2017-May-22 18:58N 59°39' E 006°22'0 0.0
2017-May-22 18:28N 59°39' E 006°22'0 0.0
2017-May-22 17:58N 59°39' E 006°22'0 0.0
2017-May-22 17:28N 59°39' E 006°22'0 0.0
2017-May-22 16:58N 59°39' E 006°22'0 0.0
2017-May-22 16:28N 59°39' E 006°22'0 0.0
2017-May-22 15:58N 59°39' E 006°22'0 0.0
2017-May-22 15:28N 59°39' E 006°22'0 0.0
2017-May-22 14:55N 59°39' E 006°22'0 0.0
2017-May-22 14:00N 59°39' E 006°22'0 0.0
2017-May-22 13:28N 59°39' E 006°22'0 0.0
2017-May-22 12:55N 59°39' E 006°22'0 0.0
2017-May-22 12:28N 59°39' E 006°22'0 0.0
2017-May-22 11:58N 59°39' E 006°22'0 0.0
2017-May-22 11:28N 59°39' E 006°22'0 0.0
2017-May-22 10:58N 59°39' E 006°22'0 0.0
2017-May-22 10:28N 59°39' E 006°22'0 0.0
2017-May-22 09:58N 59°39' E 006°22'0 0.0
2017-May-22 09:28N 59°39' E 006°22'0 0.0
2017-May-22 08:58N 59°39' E 006°22'0 0.0
2017-May-22 08:25N 59°39' E 006°22'0 0.0
2017-May-22 07:58N 59°39' E 006°22'0 0.0
2017-May-22 07:28N 59°39' E 006°22'0 0.0
2017-May-22 06:58N 59°39' E 006°22'0 0.0
2017-May-22 06:28N 59°39' E 006°22'0 0.0
2017-May-22 05:58N 59°39' E 006°22'0 0.0
2017-May-22 05:28N 59°39' E 006°22'0 0.0
2017-May-22 04:58N 59°39' E 006°22'0 0.0
2017-May-22 04:28N 59°39' E 006°22'0 0.0
2017-May-22 03:58N 59°39' E 006°22'0 0.0
2017-May-22 03:28N 59°39' E 006°22'0 0.0
2017-May-22 02:58N 59°39' E 006°22'0 0.0
2017-May-22 02:28N 59°39' E 006°22'0 0.0
2017-May-22 01:58N 59°39' E 006°22'0 0.0
2017-May-22 01:28N 59°39' E 006°22'0 0.0
2017-May-22 00:58N 59°39' E 006°22'0 0.0
2017-May-22 00:28N 59°39' E 006°22'0 0.0
2017-May-21 23:58N 59°39' E 006°22'0 0.0
2017-May-21 23:28N 59°39' E 006°22'0 0.0
2017-May-21 22:58N 59°39' E 006°22'0 0.0
2017-May-21 22:28N 59°39' E 006°22'0 0.0
2017-May-21 21:58N 59°39' E 006°22'0 0.0
2017-May-21 21:28N 59°39' E 006°22'0 0.0
2017-May-21 20:58N 59°39' E 006°22'0 0.0
2017-May-21 20:28N 59°39' E 006°22'0 0.0
2017-May-21 19:58N 59°39' E 006°22'0 0.0
2017-May-21 19:28N 59°39' E 006°22'0 0.0
2017-May-21 18:58N 59°39' E 006°22'0 0.0
2017-May-21 18:28N 59°39' E 006°22'0 0.0
2017-May-21 17:58N 59°39' E 006°22'0 0.0
2017-May-21 17:28N 59°39' E 006°22'0 0.0
2017-May-21 16:58N 59°39' E 006°22'0 0.0
2017-May-21 16:28N 59°39' E 006°22'0 0.0
2017-May-21 15:58N 59°39' E 006°22'0 0.0
2017-May-21 15:28N 59°39' E 006°22'0 0.0
2017-May-21 14:58N 59°39' E 006°22'0 0.0
2017-May-21 14:28N 59°39' E 006°22'0 0.0
2017-May-21 13:28N 59°39' E 006°22'0 0.0
2017-May-21 12:58N 59°39' E 006°22'0 0.0
2017-May-21 12:28N 59°39' E 006°22'0 0.0
2017-May-21 11:58N 59°39' E 006°22'0 0.0
2017-May-21 11:28N 59°39' E 006°22'0 0.0
2017-May-21 10:58N 59°39' E 006°22'0 0.0
2017-May-21 10:28N 59°39' E 006°22'0 0.0
2017-May-21 09:58N 59°39' E 006°22'0 0.0
2017-May-21 09:28N 59°39' E 006°22'0 0.0
2017-May-21 08:58N 59°39' E 006°22'0 0.0
2017-May-21 08:28N 59°39' E 006°22'0 0.0
2017-May-21 07:58N 59°39' E 006°22'0 0.0
2017-May-21 07:28N 59°39' E 006°22'0 0.0
2017-May-21 06:55N 59°39' E 006°22'0 0.0
2017-May-21 06:28N 59°39' E 006°22'0 0.0
2017-May-21 05:58N 59°39' E 006°22'0 0.0
2017-May-21 05:28N 59°39' E 006°22'0 0.0
2017-May-21 04:58N 59°39' E 006°22'0 0.0
2017-May-21 04:28N 59°39' E 006°22'0 0.0
2017-May-21 03:58N 59°39' E 006°22'0 0.0
2017-May-21 03:28N 59°39' E 006°22'0 0.0
2017-May-21 02:58N 59°39' E 006°22'0 0.0
2017-May-21 02:28N 59°39' E 006°22'0 0.0
2017-May-21 01:58N 59°39' E 006°22'0 0.0
2017-May-21 01:28N 59°39' E 006°22'0 0.0
2017-May-21 00:58N 59°39' E 006°22'0 0.0
2017-May-21 00:28N 59°39' E 006°22'0 0.0
2017-May-20 23:58N 59°39' E 006°22'0 0.0
2017-May-20 23:28N 59°39' E 006°22'0 0.0
2017-May-20 22:58N 59°39' E 006°22'0 0.0
2017-May-20 22:28N 59°39' E 006°22'0 0.0
2017-May-20 21:58N 59°39' E 006°22'0 0.0
2017-May-20 21:28N 59°39' E 006°22'0 0.0
2017-May-20 20:58N 59°39' E 006°22'0 0.0
2017-May-20 20:28N 59°39' E 006°22'0 0.0
2017-May-20 19:58N 59°39' E 006°22'0 0.0
2017-May-20 19:28N 59°39' E 006°22'0 0.0
2017-May-20 18:58N 59°39' E 006°22'0 0.0
2017-May-20 18:28N 59°39' E 006°22'0 0.0
2017-May-20 17:58N 59°39' E 006°22'0 0.0
2017-May-20 17:28N 59°39' E 006°22'0 0.0
2017-May-20 16:58N 59°39' E 006°22'0 0.0
2017-May-20 16:28N 59°39' E 006°22'0 0.0
2017-May-20 15:58N 59°39' E 006°22'0 0.0
2017-May-20 15:28N 59°39' E 006°22'0 0.0
2017-May-20 14:58N 59°39' E 006°22'0 0.0
2017-May-20 14:28N 59°39' E 006°22'0 0.0
2017-May-20 13:28N 59°39' E 006°22'0 0.0
2017-May-20 12:58N 59°39' E 006°22'0 0.0
2017-May-20 12:28N 59°39' E 006°22'0 0.0
2017-May-20 11:58N 59°39' E 006°22'0 0.0
2017-May-20 11:28N 59°39' E 006°22'0 0.0
2017-May-20 10:58N 59°39' E 006°22'0 0.0
2017-May-20 10:28N 59°39' E 006°22'0 0.0
2017-May-20 09:58N 59°39' E 006°22'0 0.0
2017-May-20 09:28N 59°39' E 006°22'0 0.0
2017-May-20 08:58N 59°39' E 006°22'0 0.0
2017-May-20 08:28N 59°39' E 006°22'0 0.0
2017-May-20 07:58N 59°39' E 006°22'0 0.0
2017-May-20 07:28N 59°39' E 006°22'0 0.0
2017-May-20 06:58N 59°39' E 006°22'0 0.0
2017-May-20 06:28N 59°39' E 006°22'0 0.0
2017-May-20 05:58N 59°39' E 006°22'0 0.0
2017-May-20 05:28N 59°39' E 006°22'0 0.0
2017-May-20 04:58N 59°39' E 006°22'0 0.0
2017-May-20 04:28N 59°39' E 006°22'0 0.0
2017-May-20 03:58N 59°39' E 006°22'0 0.0
2017-May-20 03:28N 59°39' E 006°22'0 0.0
2017-May-20 02:58N 59°39' E 006°22'0 0.0
2017-May-20 02:28N 59°39' E 006°22'0 0.0
2017-May-20 01:58N 59°39' E 006°22'0 0.0
2017-May-20 01:28N 59°39' E 006°22'0 0.0
2017-May-20 00:58N 59°39' E 006°22'0 0.0
2017-May-20 00:28N 59°39' E 006°22'0 0.0
2017-May-19 23:58N 59°39' E 006°22'0 0.0
2017-May-19 23:28N 59°39' E 006°22'0 0.0
2017-May-19 22:58N 59°39' E 006°22'0 0.0
2017-May-19 22:28N 59°39' E 006°22'0 0.0
2017-May-19 21:58N 59°39' E 006°22'0 0.0
2017-May-19 21:28N 59°39' E 006°22'0 0.0
2017-May-19 20:58N 59°39' E 006°22'0 0.0
2017-May-19 20:28N 59°39' E 006°22'0 0.0
2017-May-19 19:58N 59°39' E 006°22'0 0.0
2017-May-19 19:28N 59°39' E 006°22'0 0.0
2017-May-19 18:58N 59°39' E 006°22'0 0.0
2017-May-19 18:28N 59°39' E 006°22'0 0.0
2017-May-19 17:58N 59°39' E 006°22'0 0.0
2017-May-19 17:28N 59°39' E 006°22'0 0.0
2017-May-19 16:58N 59°39' E 006°22'0 0.0
2017-May-19 16:28N 59°39' E 006°22'0 0.0
2017-May-19 15:58N 59°39' E 006°22'0 0.0
2017-May-19 15:28N 59°39' E 006°22'0 0.0
2017-May-19 14:58N 59°39' E 006°22'0 0.0
2017-May-19 13:58N 59°39' E 006°22'0 0.0
2017-May-19 13:28N 59°39' E 006°22'0 0.0
2017-May-19 12:58N 59°39' E 006°22'0 0.0
2017-May-19 12:28N 59°39' E 006°22'0 0.0
2017-May-19 11:58N 59°39' E 006°22'0 0.0
2017-May-19 11:28N 59°39' E 006°22'0 0.0
2017-May-19 10:58N 59°39' E 006°22'0 0.0
2017-May-19 10:28N 59°39' E 006°22'0 0.0
2017-May-19 09:58N 59°39' E 006°22'0 0.0
2017-May-19 09:28N 59°39' E 006°22'0 0.0
2017-May-19 08:58N 59°39' E 006°22'0 0.0
2017-May-19 08:28N 59°39' E 006°22'0 0.0
2017-May-19 07:58N 59°39' E 006°22'0 0.0
2017-May-19 07:28N 59°39' E 006°22'0 0.0
2017-May-19 06:58N 59°39' E 006°22'0 0.0
2017-May-19 06:28N 59°39' E 006°22'0 0.0
2017-May-19 05:58N 59°39' E 006°22'0 0.0
2017-May-19 05:28N 59°39' E 006°22'0 0.0
2017-May-19 04:58N 59°39' E 006°22'0 0.0
2017-May-19 04:28N 59°39' E 006°22'0 0.0
2017-May-19 03:58N 59°39' E 006°22'0 0.0
2017-May-19 03:29N 59°39' E 006°22'0 0.7
2017-May-19 03:00N 59°39' E 006°21'5 9.2
2017-May-19 02:30N 59°34' E 006°18'611.1
2017-May-19 02:00N 59°29' E 006°14'510.4
2017-May-19 01:30N 59°25' E 006°08'5 8.9
2017-May-19 01:00N 59°22' E 006°01'510.7
2017-May-19 00:30N 59°19' E 005°52'510.7
2017-May-19 00:00N 59°16' E 005°44'510.5
2017-May-18 23:30N 59°12' E 005°37'510.3
2017-May-18 23:00N 59°08' E 005°30'510.0
2017-May-18 22:30N 59°05' E 005°23'5 9.9
2017-May-18 22:00N 59°03' E 005°14'5 9.6
2017-May-18 21:30N 59°07' E 005°08'510.2
2017-May-18 21:00N 59°11' E 005°04'510.4
2017-May-18 20:30N 59°16' E 005°00'5 9.7
2017-May-18 20:00N 59°21' E 004°58'5 9.8
2017-May-18 19:30N 59°26' E 004°57'510.6
2017-May-18 19:00N 59°31' E 004°56'510.6
2017-May-18 18:30N 59°36' E 004°55'510.5
2017-May-18 18:00N 59°41' E 004°54'510.2
2017-May-18 17:30N 59°47' E 004°54'510.2
2017-May-18 17:00N 59°52' E 004°54'510.2
2017-May-18 16:30N 59°57' E 004°55'510.0
2017-May-18 16:00N 60°02' E 004°55'510.0
2017-May-18 15:30N 60°07' E 004°56'4 8.7
2017-May-18 15:00N 60°09' E 005°03'5 9.7
2017-May-18 14:30N 60°12' E 005°11'1010.1
2017-May-18 13:30N 60°22' E 005°10'5 9.4
2017-May-18 13:00N 60°25' E 005°02'0 0.5
2017-May-18 12:30N 60°25' E 005°01'0 0.0
2017-May-18 12:00N 60°25' E 005°01'0 0.0
2017-May-18 11:30N 60°25' E 005°01'0 0.1
2017-May-18 11:00N 60°25' E 005°01'4 8.3
2017-May-18 10:30N 60°24' E 005°09'611.1
2017-May-18 10:00N 60°18' E 005°12'510.4
2017-May-18 09:30N 60°13' E 005°10'4 8.9
2017-May-18 09:00N 60°09' E 005°05'3 6.5
2017-May-18 08:30N 60°08' E 004°59'0 0.7
2017-May-18 08:00N 60°08' E 004°58'0 0.7
2017-May-18 07:30N 60°08' E 004°57'2 4.0
2017-May-18 07:00N 60°06' E 004°56'3 6.2
2017-May-18 06:30N 60°03' E 004°54'3 6.2
2017-May-18 06:00N 60°00' E 004°54'3 6.4
2017-May-18 05:30N 59°57' E 004°53'4 7.3
2017-May-18 05:00N 59°53' E 004°51'510.0
2017-May-18 04:30N 59°49' E 004°50'5 9.8
2017-May-18 04:01N 59°44' E 004°48'5 9.7
2017-May-18 03:31N 59°39' E 004°46'5 9.7
2017-May-18 03:00N 59°34' E 004°45'5 9.9
2017-May-18 02:30N 59°29' E 004°43'30 9.8
2017-May-17 23:25N 58°59' E 004°51'510.8
2017-May-17 23:00N 58°55' E 004°54'611.3
2017-May-17 22:31N 58°50' E 004°57'510.9
2017-May-17 22:00N 58°44' E 005°01'510.4
2017-May-17 21:30N 58°40' E 005°05'510.2
2017-May-17 21:01N 58°35' E 005°10'510.2
2017-May-17 20:30N 58°31' E 005°14'510.3
2017-May-17 20:01N 58°26' E 005°19'611.0
2017-May-17 19:30N 58°21' E 005°24'510.8
2017-May-17 19:00N 58°17' E 005°31'510.7
2017-May-17 18:30N 58°14' E 005°39'510.4
2017-May-17 18:00N 58°11' E 005°46'510.7
2017-May-17 17:30N 58°07' E 005°54'510.5
2017-May-17 17:00N 58°04' E 006°01'510.3
2017-May-17 16:30N 58°00' E 006°09'5 9.8
2017-May-17 16:00N 57°57' E 006°16'5 9.8
2017-May-17 15:30N 57°54' E 006°24'610.9
2017-May-17 15:00N 57°51' E 006°31'10 9.9
2017-May-17 14:00N 57°47' E 006°49'5 9.8
2017-May-17 13:30N 57°46' E 006°58'5 9.5
2017-May-17 13:00N 57°46' E 007°06'5 9.3
2017-May-17 12:30N 57°45' E 007°15'5 9.6
2017-May-17 12:00N 57°45' E 007°24'5 9.6
2017-May-17 11:30N 57°45' E 007°33'510.4
2017-May-17 11:00N 57°45' E 007°43'510.5
2017-May-17 10:30N 57°46' E 007°52'510.3
2017-May-17 10:01N 57°48' E 008°01'5 9.8
2017-May-17 09:30N 57°50' E 008°10'5 9.6
2017-May-17 09:00N 57°52' E 008°18'2110.2
2017-May-17 06:55N 58°04' E 008°51'510.1
2017-May-17 06:28N 58°08' E 008°56'43 9.6
2017-May-17 02:01N 58°39' E 009°50'0 8.8
2017-May-17 02:00N 58°40' E 009°50'5 9.0
2017-May-17 01:30N 58°43' E 009°55'5 9.4
2017-May-17 01:00N 58°47' E 010°01'5 9.8
2017-May-17 00:30N 58°50' E 010°08'5 9.7
2017-May-17 00:01N 58°53' E 010°15'5 9.3
2017-May-16 23:31N 58°56' E 010°22'4 8.6
2017-May-16 23:00N 58°59' E 010°29'4 8.4
2017-May-16 22:30N 59°02' E 010°34'4 8.6
2017-May-16 22:01N 59°05' E 010°39'4 8.5
2017-May-16 21:30N 59°08' E 010°46'4 8.6
2017-May-16 21:01N 59°11' E 010°52'2 4.9
2017-May-16 20:30N 59°13' E 010°55'0 0.2
2017-May-16 19:57N 59°13' E 010°55'0 0.0
2017-May-16 19:30N 59°13' E 010°55'0 0.0
2017-May-16 19:00N 59°13' E 010°55'0 0.0
2017-May-16 18:30N 59°13' E 010°55'0 0.0
2017-May-16 18:00N 59°13' E 010°55'0 0.0
2017-May-16 17:30N 59°13' E 010°55'0 0.0
2017-May-16 17:00N 59°13' E 010°55'0 0.0
2017-May-16 16:30N 59°13' E 010°55'0 0.0
2017-May-16 16:00N 59°13' E 010°55'0 0.0
2017-May-16 15:30N 59°13' E 010°55'0 0.0
2017-May-16 15:00N 59°13' E 010°55'0 0.0
2017-May-16 14:30N 59°13' E 010°55'0 0.0
2017-May-16 13:31N 59°13' E 010°55'1 2.4
2017-May-16 13:00N 59°12' E 010°54'4 7.7
2017-May-16 12:31N 59°08' E 010°55'3 6.1
2017-May-16 11:58N 59°11' E 010°57'0 0.0
2017-May-16 11:28N 59°11' E 010°57'0 0.0
2017-May-16 10:58N 59°11' E 010°57'0 0.0
2017-May-16 10:28N 59°11' E 010°57'0 0.0
2017-May-16 09:58N 59°11' E 010°57'0 0.0
2017-May-16 09:28N 59°11' E 010°57'0 0.0
2017-May-16 08:58N 59°11' E 010°57'0 0.0
2017-May-16 08:28N 59°11' E 010°57'0 0.0
2017-May-16 07:58N 59°11' E 010°57'0 0.0
2017-May-16 07:28N 59°11' E 010°57'0 0.0
2017-May-16 06:58N 59°11' E 010°57'0 0.0
2017-May-16 06:28N 59°11' E 010°57'0 0.0
2017-May-16 05:58N 59°11' E 010°57'0 0.0
2017-May-16 05:28N 59°11' E 010°57'0 0.0
2017-May-16 04:58N 59°11' E 010°57'0 0.0
2017-May-16 04:28N 59°11' E 010°57'0 0.0
2017-May-16 03:58N 59°11' E 010°57'0 0.0
2017-May-16 03:28N 59°11' E 010°57'0 0.0
2017-May-16 02:58N 59°11' E 010°57'0 0.0
2017-May-16 02:28N 59°11' E 010°57'0 0.0
2017-May-16 01:58N 59°11' E 010°57'0 0.0
2017-May-16 01:28N 59°11' E 010°57'0 0.0
2017-May-16 00:58N 59°11' E 010°57'0 0.0
2017-May-16 00:28N 59°11' E 010°57'0 0.0
2017-May-15 23:58N 59°11' E 010°57'0 0.0
2017-May-15 23:28N 59°11' E 010°57'0 0.0
2017-May-15 22:58N 59°11' E 010°57'0 0.0
2017-May-15 22:28N 59°11' E 010°57'0 0.0
2017-May-15 21:58N 59°11' E 010°57'0 0.0
2017-May-15 21:28N 59°11' E 010°57'0 0.0
2017-May-15 20:58N 59°11' E 010°57'0 0.0
2017-May-15 20:28N 59°11' E 010°57'0 0.0
2017-May-15 19:58N 59°11' E 010°57'0 0.0
2017-May-15 19:28N 59°11' E 010°57'0 0.0
2017-May-15 18:58N 59°11' E 010°57'0 0.0
2017-May-15 18:28N 59°11' E 010°57'0 0.0
2017-May-15 17:58N 59°11' E 010°57'0 0.0
2017-May-15 17:28N 59°11' E 010°57'0 0.0
2017-May-15 16:58N 59°11' E 010°57'0 0.0
2017-May-15 16:28N 59°11' E 010°57'0 0.0
2017-May-15 15:58N 59°11' E 010°57'0 0.0
2017-May-15 15:28N 59°11' E 010°57'0 0.0
2017-May-15 14:58N 59°11' E 010°57'0 0.0
2017-May-15 13:58N 59°11' E 010°57'0 0.0
2017-May-15 13:28N 59°11' E 010°57'0 0.0
2017-May-15 12:58N 59°11' E 010°57'0 0.0
2017-May-15 12:28N 59°11' E 010°57'1 1.1
2017-May-15 12:00N 59°10' E 010°57'4 8.2
2017-May-15 11:30N 59°06' E 010°58'510.4
2017-May-15 11:00N 59°01' E 010°57'5 9.9
2017-May-15 10:30N 59°03' E 010°49'510.3
2017-May-15 10:00N 59°07' E 010°42'510.3
2017-May-15 09:30N 59°12' E 010°38'510.6
2017-May-15 09:00N 59°17' E 010°35'510.0
2017-May-15 08:30N 59°21' E 010°30'4 7.2
2017-May-15 08:00N 59°25' E 010°30'0 0.0
2017-May-15 07:30N 59°25' E 010°30'  
Track history (hours):
 
Tides and Currents Weather Stations Pressure Air Temp Water Temp Dewpoint Dewpoint Depression Visibility Wind Speed Wind Dir Waves Ship Positions

Rms Voerde

Last reported at 2017-May-25 07:01 UTC. Time now 2017-May-25 07:01 UTC.
Position N 52°20' E 003°48'.

Length 90 m.

Type: Ship. MMSI: 304010905.

Date/timePositionNaut miles runAvg speedWind from/ knotsBaromVisibWave heightAir tempDewpointWater temp
2017-May-25 07:01N 52°20' E 003°48'1311.6
2017-May-25 05:55N 52°33' E 003°52'510.4
2017-May-25 05:26N 52°38' E 003°53'410.4
2017-May-25 05:00N 52°42' E 003°55'510.3
2017-May-25 04:30N 52°47' E 003°57'5 9.9
2017-May-25 04:00N 52°52' E 003°58'5 9.5
2017-May-25 03:30N 52°57' E 004°00'5 9.2
2017-May-25 02:55N 53°01' E 004°06'4 9.3
2017-May-25 02:30N 53°03' E 004°11'5 9.3
2017-May-25 02:00N 53°06' E 004°16'4 8.5
2017-May-25 01:30N 53°09' E 004°21'4 9.0
2017-May-25 01:00N 53°13' E 004°26'5 9.7
2017-May-25 00:30N 53°18' E 004°29'510.1
2017-May-25 00:00N 53°22' E 004°31'610.3
2017-May-24 23:28N 53°28' E 004°34'510.0
2017-May-24 22:58N 53°32' E 004°37'510.1
2017-May-24 22:30N 53°37' E 004°39'6 9.8
2017-May-24 21:53N 53°43' E 004°43'29210.3
2017-May-23 17:31N 58°34' E 005°13'010.3
2017-May-23 17:30N 58°34' E 005°13'510.6
2017-May-23 17:00N 58°39' E 005°13'510.2
2017-May-23 16:30N 58°44' E 005°14'5 9.9
2017-May-23 16:00N 58°49' E 005°15'5 9.9
2017-May-23 15:30N 58°54' E 005°17'5 9.9
2017-May-23 15:00N 58°59' E 005°18'5 9.6
2017-May-23 14:30N 59°04' E 005°19'9 8.6
2017-May-23 13:30N 59°10' E 005°31'510.5
2017-May-23 13:00N 59°13' E 005°38'510.9
2017-May-23 12:30N 59°17' E 005°46'510.7
2017-May-23 12:00N 59°20' E 005°55'611.0
2017-May-23 11:30N 59°23' E 006°04'5 9.9
2017-May-23 11:00N 59°26' E 006°11'510.8
2017-May-23 10:30N 59°31' E 006°16'510.5
2017-May-23 10:00N 59°36' E 006°19'3 5.1
2017-May-23 09:28N 59°39' E 006°22'0 0.0
2017-May-23 08:58N 59°39' E 006°22'0 0.0
2017-May-23 08:28N 59°39' E 006°22'0 0.0
2017-May-23 07:58N 59°39' E 006°22'0 0.0
2017-May-23 07:28N 59°39' E 006°22'0 0.0
2017-May-23 06:58N 59°39' E 006°22'0 0.0
2017-May-23 06:28N 59°39' E 006°22'0 0.0
2017-May-23 05:58N 59°39' E 006°22'0 0.0
2017-May-23 05:28N 59°39' E 006°22'0 0.0
2017-May-23 04:58N 59°39' E 006°22'0 0.0
2017-May-23 04:28N 59°39' E 006°22'0 0.0
2017-May-23 03:58N 59°39' E 006°22'0 0.0
2017-May-23 03:28N 59°39' E 006°22'0 0.0
2017-May-23 02:58N 59°39' E 006°22'0 0.0
2017-May-23 02:28N 59°39' E 006°22'0 0.0
2017-May-23 01:58N 59°39' E 006°22'0 0.0
2017-May-23 01:28N 59°39' E 006°22'0 0.0
2017-May-23 00:58N 59°39' E 006°22'0 0.0
2017-May-23 00:28N 59°39' E 006°22'0 0.0
2017-May-22 23:58N 59°39' E 006°22'0 0.0
2017-May-22 23:28N 59°39' E 006°22'0 0.0
2017-May-22 22:58N 59°39' E 006°22'0 0.0
2017-May-22 22:28N 59°39' E 006°22'0 0.0
2017-May-22 21:58N 59°39' E 006°22'0 0.0
2017-May-22 21:28N 59°39' E 006°22'0 0.0
2017-May-22 20:58N 59°39' E 006°22'0 0.0
2017-May-22 20:28N 59°39' E 006°22'0 0.0
2017-May-22 19:58N 59°39' E 006°22'0 0.0
2017-May-22 19:28N 59°39' E 006°22'0 0.0
2017-May-22 18:58N 59°39' E 006°22'0 0.0
2017-May-22 18:28N 59°39' E 006°22'0 0.0
2017-May-22 17:58N 59°39' E 006°22'0 0.0
2017-May-22 17:28N 59°39' E 006°22'0 0.0
2017-May-22 16:58N 59°39' E 006°22'0 0.0
2017-May-22 16:28N 59°39' E 006°22'0 0.0
2017-May-22 15:58N 59°39' E 006°22'0 0.0
2017-May-22 15:28N 59°39' E 006°22'0 0.0
2017-May-22 14:55N 59°39' E 006°22'0 0.0
2017-May-22 14:00N 59°39' E 006°22'0 0.0
2017-May-22 13:28N 59°39' E 006°22'0 0.0
2017-May-22 12:55N 59°39' E 006°22'0 0.0
2017-May-22 12:28N 59°39' E 006°22'0 0.0
2017-May-22 11:58N 59°39' E 006°22'0 0.0
2017-May-22 11:28N 59°39' E 006°22'0 0.0
2017-May-22 10:58N 59°39' E 006°22'0 0.0
2017-May-22 10:28N 59°39' E 006°22'0 0.0
2017-May-22 09:58N 59°39' E 006°22'0 0.0
2017-May-22 09:28N 59°39' E 006°22'0 0.0
2017-May-22 08:58N 59°39' E 006°22'0 0.0
2017-May-22 08:25N 59°39' E 006°22'0 0.0
2017-May-22 07:58N 59°39' E 006°22'0 0.0
2017-May-22 07:28N 59°39' E 006°22'0 0.0
2017-May-22 06:58N 59°39' E 006°22'0 0.0
2017-May-22 06:28N 59°39' E 006°22'0 0.0
2017-May-22 05:58N 59°39' E 006°22'0 0.0
2017-May-22 05:28N 59°39' E 006°22'0 0.0
2017-May-22 04:58N 59°39' E 006°22'0 0.0
2017-May-22 04:28N 59°39' E 006°22'0 0.0
2017-May-22 03:58N 59°39' E 006°22'0 0.0
2017-May-22 03:28N 59°39' E 006°22'0 0.0
2017-May-22 02:58N 59°39' E 006°22'0 0.0
2017-May-22 02:28N 59°39' E 006°22'0 0.0
2017-May-22 01:58N 59°39' E 006°22'0 0.0
2017-May-22 01:28N 59°39' E 006°22'0 0.0
2017-May-22 00:58N 59°39' E 006°22'0 0.0
2017-May-22 00:28N 59°39' E 006°22'0 0.0
2017-May-21 23:58N 59°39' E 006°22'0 0.0
2017-May-21 23:28N 59°39' E 006°22'0 0.0
2017-May-21 22:58N 59°39' E 006°22'0 0.0
2017-May-21 22:28N 59°39' E 006°22'0 0.0
2017-May-21 21:58N 59°39' E 006°22'0 0.0
2017-May-21 21:28N 59°39' E 006°22'0 0.0
2017-May-21 20:58N 59°39' E 006°22'0 0.0
2017-May-21 20:28N 59°39' E 006°22'0 0.0
2017-May-21 19:58N 59°39' E 006°22'0 0.0
2017-May-21 19:28N 59°39' E 006°22'0 0.0
2017-May-21 18:58N 59°39' E 006°22'0 0.0
2017-May-21 18:28N 59°39' E 006°22'0 0.0
2017-May-21 17:58N 59°39' E 006°22'0 0.0
2017-May-21 17:28N 59°39' E 006°22'0 0.0
2017-May-21 16:58N 59°39' E 006°22'0 0.0
2017-May-21 16:28N 59°39' E 006°22'0 0.0
2017-May-21 15:58N 59°39' E 006°22'0 0.0
2017-May-21 15:28N 59°39' E 006°22'0 0.0
2017-May-21 14:58N 59°39' E 006°22'0 0.0
2017-May-21 14:28N 59°39' E 006°22'0 0.0
2017-May-21 13:28N 59°39' E 006°22'0 0.0
2017-May-21 12:58N 59°39' E 006°22'0 0.0
2017-May-21 12:28N 59°39' E 006°22'0 0.0
2017-May-21 11:58N 59°39' E 006°22'0 0.0
2017-May-21 11:28N 59°39' E 006°22'0 0.0
2017-May-21 10:58N 59°39' E 006°22'0 0.0
2017-May-21 10:28N 59°39' E 006°22'0 0.0
2017-May-21 09:58N 59°39' E 006°22'0 0.0
2017-May-21 09:28N 59°39' E 006°22'0 0.0
2017-May-21 08:58N 59°39' E 006°22'0 0.0
2017-May-21 08:28N 59°39' E 006°22'0 0.0
2017-May-21 07:58N 59°39' E 006°22'0 0.0
2017-May-21 07:28N 59°39' E 006°22'0 0.0
2017-May-21 06:55N 59°39' E 006°22'0 0.0
2017-May-21 06:28N 59°39' E 006°22'0 0.0
2017-May-21 05:58N 59°39' E 006°22'0 0.0
2017-May-21 05:28N 59°39' E 006°22'0 0.0
2017-May-21 04:58N 59°39' E 006°22'0 0.0
2017-May-21 04:28N 59°39' E 006°22'0 0.0
2017-May-21 03:58N 59°39' E 006°22'0 0.0
2017-May-21 03:28N 59°39' E 006°22'0 0.0
2017-May-21 02:58N 59°39' E 006°22'0 0.0
2017-May-21 02:28N 59°39' E 006°22'0 0.0
2017-May-21 01:58N 59°39' E 006°22'0 0.0
2017-May-21 01:28N 59°39' E 006°22'0 0.0
2017-May-21 00:58N 59°39' E 006°22'0 0.0
2017-May-21 00:28N 59°39' E 006°22'0 0.0
2017-May-20 23:58N 59°39' E 006°22'0 0.0
2017-May-20 23:28N 59°39' E 006°22'0 0.0
2017-May-20 22:58N 59°39' E 006°22'0 0.0
2017-May-20 22:28N 59°39' E 006°22'0 0.0
2017-May-20 21:58N 59°39' E 006°22'0 0.0
2017-May-20 21:28N 59°39' E 006°22'0 0.0
2017-May-20 20:58N 59°39' E 006°22'0 0.0
2017-May-20 20:28N 59°39' E 006°22'0 0.0
2017-May-20 19:58N 59°39' E 006°22'0 0.0
2017-May-20 19:28N 59°39' E 006°22'0 0.0
2017-May-20 18:58N 59°39' E 006°22'0 0.0
2017-May-20 18:28N 59°39' E 006°22'0 0.0
2017-May-20 17:58N 59°39' E 006°22'0 0.0
2017-May-20 17:28N 59°39' E 006°22'0 0.0
2017-May-20 16:58N 59°39' E 006°22'0 0.0
2017-May-20 16:28N 59°39' E 006°22'0 0.0
2017-May-20 15:58N 59°39' E 006°22'0 0.0
2017-May-20 15:28N 59°39' E 006°22'0 0.0
2017-May-20 14:58N 59°39' E 006°22'0 0.0
2017-May-20 14:28N 59°39' E 006°22'0 0.0
2017-May-20 13:28N 59°39' E 006°22'0 0.0
2017-May-20 12:58N 59°39' E 006°22'0 0.0
2017-May-20 12:28N 59°39' E 006°22'0 0.0
2017-May-20 11:58N 59°39' E 006°22'0 0.0
2017-May-20 11:28N 59°39' E 006°22'0 0.0
2017-May-20 10:58N 59°39' E 006°22'0 0.0
2017-May-20 10:28N 59°39' E 006°22'0 0.0
2017-May-20 09:58N 59°39' E 006°22'0 0.0
2017-May-20 09:28N 59°39' E 006°22'0 0.0
2017-May-20 08:58N 59°39' E 006°22'0 0.0
2017-May-20 08:28N 59°39' E 006°22'0 0.0
2017-May-20 07:58N 59°39' E 006°22'0 0.0
2017-May-20 07:28N 59°39' E 006°22'0 0.0
2017-May-20 06:58N 59°39' E 006°22'0 0.0
2017-May-20 06:28N 59°39' E 006°22'0 0.0
2017-May-20 05:58N 59°39' E 006°22'0 0.0
2017-May-20 05:28N 59°39' E 006°22'0 0.0
2017-May-20 04:58N 59°39' E 006°22'0 0.0
2017-May-20 04:28N 59°39' E 006°22'0 0.0
2017-May-20 03:58N 59°39' E 006°22'0 0.0
2017-May-20 03:28N 59°39' E 006°22'0 0.0
2017-May-20 02:58N 59°39' E 006°22'0 0.0
2017-May-20 02:28N 59°39' E 006°22'0 0.0
2017-May-20 01:58N 59°39' E 006°22'0 0.0
2017-May-20 01:28N 59°39' E 006°22'0 0.0
2017-May-20 00:58N 59°39' E 006°22'0 0.0
2017-May-20 00:28N 59°39' E 006°22'0 0.0
2017-May-19 23:58N 59°39' E 006°22'0 0.0
2017-May-19 23:28N 59°39' E 006°22'0 0.0
2017-May-19 22:58N 59°39' E 006°22'0 0.0
2017-May-19 22:28N 59°39' E 006°22'0 0.0
2017-May-19 21:58N 59°39' E 006°22'0 0.0
2017-May-19 21:28N 59°39' E 006°22'0 0.0
2017-May-19 20:58N 59°39' E 006°22'0 0.0
2017-May-19 20:28N 59°39' E 006°22'0 0.0
2017-May-19 19:58N 59°39' E 006°22'0 0.0
2017-May-19 19:28N 59°39' E 006°22'0 0.0
2017-May-19 18:58N 59°39' E 006°22'0 0.0
2017-May-19 18:28N 59°39' E 006°22'0 0.0
2017-May-19 17:58N 59°39' E 006°22'0 0.0
2017-May-19 17:28N 59°39' E 006°22'0 0.0
2017-May-19 16:58N 59°39' E 006°22'0 0.0
2017-May-19 16:28N 59°39' E 006°22'0 0.0
2017-May-19 15:58N 59°39' E 006°22'0 0.0
2017-May-19 15:28N 59°39' E 006°22'0 0.0
2017-May-19 14:58N 59°39' E 006°22'0 0.0
2017-May-19 13:58N 59°39' E 006°22'0 0.0
2017-May-19 13:28N 59°39' E 006°22'0 0.0
2017-May-19 12:58N 59°39' E 006°22'0 0.0
2017-May-19 12:28N 59°39' E 006°22'0 0.0
2017-May-19 11:58N 59°39' E 006°22'0 0.0
2017-May-19 11:28N 59°39' E 006°22'0 0.0
2017-May-19 10:58N 59°39' E 006°22'0 0.0
2017-May-19 10:28N 59°39' E 006°22'0 0.0
2017-May-19 09:58N 59°39' E 006°22'0 0.0
2017-May-19 09:28N 59°39' E 006°22'0 0.0
2017-May-19 08:58N 59°39' E 006°22'0 0.0
2017-May-19 08:28N 59°39' E 006°22'0 0.0
2017-May-19 07:58N 59°39' E 006°22'0 0.0
2017-May-19 07:28N 59°39' E 006°22'0 0.0
2017-May-19 06:58N 59°39' E 006°22'0 0.0
2017-May-19 06:28N 59°39' E 006°22'0 0.0
2017-May-19 05:58N 59°39' E 006°22'0 0.0
2017-May-19 05:28N 59°39' E 006°22'0 0.0
2017-May-19 04:58N 59°39' E 006°22'0 0.0
2017-May-19 04:28N 59°39' E 006°22'0 0.0
2017-May-19 03:58N 59°39' E 006°22'0 0.0
2017-May-19 03:29N 59°39' E 006°22'0 0.7
2017-May-19 03:00N 59°39' E 006°21'5 9.2
2017-May-19 02:30N 59°34' E 006°18'611.1
2017-May-19 02:00N 59°29' E 006°14'510.4
2017-May-19 01:30N 59°25' E 006°08'5 8.9
2017-May-19 01:00N 59°22' E 006°01'510.7
2017-May-19 00:30N 59°19' E 005°52'510.7
2017-May-19 00:00N 59°16' E 005°44'510.5
2017-May-18 23:30N 59°12' E 005°37'510.3
2017-May-18 23:00N 59°08' E 005°30'510.0
2017-May-18 22:30N 59°05' E 005°23'5 9.9
2017-May-18 22:00N 59°03' E 005°14'5 9.6
2017-May-18 21:30N 59°07' E 005°08'510.2
2017-May-18 21:00N 59°11' E 005°04'510.4
2017-May-18 20:30N 59°16' E 005°00'5 9.7
2017-May-18 20:00N 59°21' E 004°58'5 9.8
2017-May-18 19:30N 59°26' E 004°57'510.6
2017-May-18 19:00N 59°31' E 004°56'510.6
2017-May-18 18:30N 59°36' E 004°55'510.5
2017-May-18 18:00N 59°41' E 004°54'510.2
2017-May-18 17:30N 59°47' E 004°54'510.2
2017-May-18 17:00N 59°52' E 004°54'510.2
2017-May-18 16:30N 59°57' E 004°55'510.0
2017-May-18 16:00N 60°02' E 004°55'510.0
2017-May-18 15:30N 60°07' E 004°56'4 8.7
2017-May-18 15:00N 60°09' E 005°03'5 9.7
2017-May-18 14:30N 60°12' E 005°11'1010.1
2017-May-18 13:30N 60°22' E 005°10'5 9.4
2017-May-18 13:00N 60°25' E 005°02'0 0.5
2017-May-18 12:30N 60°25' E 005°01'0 0.0
2017-May-18 12:00N 60°25' E 005°01'0 0.0
2017-May-18 11:30N 60°25' E 005°01'0 0.1
2017-May-18 11:00N 60°25' E 005°01'4 8.3
2017-May-18 10:30N 60°24' E 005°09'611.1
2017-May-18 10:00N 60°18' E 005°12'510.4
2017-May-18 09:30N 60°13' E 005°10'4 8.9
2017-May-18 09:00N 60°09' E 005°05'3 6.5
2017-May-18 08:30N 60°08' E 004°59'0 0.7
2017-May-18 08:00N 60°08' E 004°58'0 0.7
2017-May-18 07:30N 60°08' E 004°57'2 4.0
2017-May-18 07:00N 60°06' E 004°56'3 6.2
2017-May-18 06:30N 60°03' E 004°54'3 6.2
2017-May-18 06:00N 60°00' E 004°54'3 6.4
2017-May-18 05:30N 59°57' E 004°53'4 7.3
2017-May-18 05:00N 59°53' E 004°51'510.0
2017-May-18 04:30N 59°49' E 004°50'5 9.8
2017-May-18 04:01N 59°44' E 004°48'5 9.7
2017-May-18 03:31N 59°39' E 004°46'5 9.7
2017-May-18 03:00N 59°34' E 004°45'5 9.9
2017-May-18 02:30N 59°29' E 004°43'30 9.8
2017-May-17 23:25N 58°59' E 004°51'510.8
2017-May-17 23:00N 58°55' E 004°54'611.3
2017-May-17 22:31N 58°50' E 004°57'510.9
2017-May-17 22:00N 58°44' E 005°01'510.4
2017-May-17 21:30N 58°40' E 005°05'510.2
2017-May-17 21:01N 58°35' E 005°10'510.2
2017-May-17 20:30N 58°31' E 005°14'510.3
2017-May-17 20:01N 58°26' E 005°19'611.0
2017-May-17 19:30N 58°21' E 005°24'510.8
2017-May-17 19:00N 58°17' E 005°31'510.7
2017-May-17 18:30N 58°14' E 005°39'510.4
2017-May-17 18:00N 58°11' E 005°46'510.7
2017-May-17 17:30N 58°07' E 005°54'510.5
2017-May-17 17:00N 58°04' E 006°01'510.3
2017-May-17 16:30N 58°00' E 006°09'5 9.8
2017-May-17 16:00N 57°57' E 006°16'5 9.8
2017-May-17 15:30N 57°54' E 006°24'610.9
2017-May-17 15:00N 57°51' E 006°31'10 9.9
2017-May-17 14:00N 57°47' E 006°49'5 9.8
2017-May-17 13:30N 57°46' E 006°58'5 9.5
2017-May-17 13:00N 57°46' E 007°06'5 9.3
2017-May-17 12:30N 57°45' E 007°15'5 9.6
2017-May-17 12:00N 57°45' E 007°24'5 9.6
2017-May-17 11:30N 57°45' E 007°33'510.4
2017-May-17 11:00N 57°45' E 007°43'510.5
2017-May-17 10:30N 57°46' E 007°52'510.3
2017-May-17 10:01N 57°48' E 008°01'5 9.8
2017-May-17 09:30N 57°50' E 008°10'5 9.6
2017-May-17 09:00N 57°52' E 008°18'2110.2
2017-May-17 06:55N 58°04' E 008°51'510.1
2017-May-17 06:28N 58°08' E 008°56'43 9.6
2017-May-17 02:01N 58°39' E 009°50'0 8.8
2017-May-17 02:00N 58°40' E 009°50'5 9.0
2017-May-17 01:30N 58°43' E 009°55'5 9.4
2017-May-17 01:00N 58°47' E 010°01'5 9.8
2017-May-17 00:30N 58°50' E 010°08'5 9.7
2017-May-17 00:01N 58°53' E 010°15'5 9.3
2017-May-16 23:31N 58°56' E 010°22'4 8.6
2017-May-16 23:00N 58°59' E 010°29'4 8.4
2017-May-16 22:30N 59°02' E 010°34'4 8.6
2017-May-16 22:01N 59°05' E 010°39'4 8.5
2017-May-16 21:30N 59°08' E 010°46'4 8.6
2017-May-16 21:01N 59°11' E 010°52'2 4.9
2017-May-16 20:30N 59°13' E 010°55'0 0.2
2017-May-16 19:57N 59°13' E 010°55'0 0.0
2017-May-16 19:30N 59°13' E 010°55'0 0.0
2017-May-16 19:00N 59°13' E 010°55'0 0.0
2017-May-16 18:30N 59°13' E 010°55'0 0.0
2017-May-16 18:00N 59°13' E 010°55'0 0.0
2017-May-16 17:30N 59°13' E 010°55'0 0.0
2017-May-16 17:00N 59°13' E 010°55'0 0.0
2017-May-16 16:30N 59°13' E 010°55'0 0.0
2017-May-16 16:00N 59°13' E 010°55'0 0.0
2017-May-16 15:30N 59°13' E 010°55'0 0.0
2017-May-16 15:00N 59°13' E 010°55'0 0.0
2017-May-16 14:30N 59°13' E 010°55'0 0.0
2017-May-16 13:31N 59°13' E 010°55'1 2.4
2017-May-16 13:00N 59°12' E 010°54'4 7.7
2017-May-16 12:31N 59°08' E 010°55'3 6.1
2017-May-16 11:58N 59°11' E 010°57'0 0.0
2017-May-16 11:28N 59°11' E 010°57'0 0.0
2017-May-16 10:58N 59°11' E 010°57'0 0.0
2017-May-16 10:28N 59°11' E 010°57'0 0.0
2017-May-16 09:58N 59°11' E 010°57'0 0.0
2017-May-16 09:28N 59°11' E 010°57'0 0.0
2017-May-16 08:58N 59°11' E 010°57'0 0.0
2017-May-16 08:28N 59°11' E 010°57'0 0.0
2017-May-16 07:58N 59°11' E 010°57'0 0.0
2017-May-16 07:28N 59°11' E 010°57'0 0.0
2017-May-16 06:58N 59°11' E 010°57'0 0.0
2017-May-16 06:28N 59°11' E 010°57'0 0.0
2017-May-16 05:58N 59°11' E 010°57'0 0.0
2017-May-16 05:28N 59°11' E 010°57'0 0.0
2017-May-16 04:58N 59°11' E 010°57'0 0.0
2017-May-16 04:28N 59°11' E 010°57'0 0.0
2017-May-16 03:58N 59°11' E 010°57'0 0.0
2017-May-16 03:28N 59°11' E 010°57'0 0.0
2017-May-16 02:58N 59°11' E 010°57'0 0.0
2017-May-16 02:28N 59°11' E 010°57'0 0.0
2017-May-16 01:58N 59°11' E 010°57'0 0.0
2017-May-16 01:28N 59°11' E 010°57'0 0.0
2017-May-16 00:58N 59°11' E 010°57'0 0.0
2017-May-16 00:28N 59°11' E 010°57'0 0.0
2017-May-15 23:58N 59°11' E 010°57'0 0.0
2017-May-15 23:28N 59°11' E 010°57'0 0.0
2017-May-15 22:58N 59°11' E 010°57'0 0.0
2017-May-15 22:28N 59°11' E 010°57'0 0.0
2017-May-15 21:58N 59°11' E 010°57'0 0.0
2017-May-15 21:28N 59°11' E 010°57'0 0.0
2017-May-15 20:58N 59°11' E 010°57'0 0.0
2017-May-15 20:28N 59°11' E 010°57'0 0.0
2017-May-15 19:58N 59°11' E 010°57'0 0.0
2017-May-15 19:28N 59°11' E 010°57'0 0.0
2017-May-15 18:58N 59°11' E 010°57'0 0.0
2017-May-15 18:28N 59°11' E 010°57'0 0.0
2017-May-15 17:58N 59°11' E 010°57'0 0.0
2017-May-15 17:28N 59°11' E 010°57'0 0.0
2017-May-15 16:58N 59°11' E 010°57'0 0.0
2017-May-15 16:28N 59°11' E 010°57'0 0.0
2017-May-15 15:58N 59°11' E 010°57'0 0.0
2017-May-15 15:28N 59°11' E 010°57'0 0.0
2017-May-15 14:58N 59°11' E 010°57'0 0.0
2017-May-15 13:58N 59°11' E 010°57'0 0.0
2017-May-15 13:28N 59°11' E 010°57'0 0.0
2017-May-15 12:58N 59°11' E 010°57'0 0.0
2017-May-15 12:28N 59°11' E 010°57'1 1.1
2017-May-15 12:00N 59°10' E 010°57'4 8.2
2017-May-15 11:30N 59°06' E 010°58'510.4
2017-May-15 11:00N 59°01' E 010°57'5 9.9
2017-May-15 10:30N 59°03' E 010°49'510.3
2017-May-15 10:00N 59°07' E 010°42'510.3
2017-May-15 09:30N 59°12' E 010°38'510.6
2017-May-15 09:00N 59°17' E 010°35'510.0
2017-May-15 08:30N 59°21' E 010°30'4 7.2
2017-May-15 08:00N 59°25' E 010°30'0 0.0
2017-May-15 07:30N 59°25' E 010°30'  

Dump ship's entire track history